createdAt,value
2023-04-26T00:00:11.869Z,70.24
2023-04-26T00:02:38.600Z,70.34
2023-04-26T00:05:06.497Z,70.60
2023-04-26T00:07:33.983Z,70.46
2023-04-26T00:10:00.537Z,70.85
2023-04-26T00:12:27.807Z,71.42
2023-04-26T00:14:54.388Z,71.06
2023-04-26T00:17:21.103Z,70.56
2023-04-26T00:19:47.645Z,70.85
2023-04-26T00:22:15.325Z,71.34
2023-04-26T00:24:41.946Z,71.05
2023-04-26T00:27:10.387Z,71.45
2023-04-26T00:29:37.593Z,71.56
2023-04-26T00:32:04.310Z,71.65
2023-04-26T00:34:37.432Z,71.68
2023-04-26T00:37:05.298Z,71.51
2023-04-26T00:39:31.910Z,72.20
2023-04-26T00:41:58.500Z,71.84
2023-04-26T00:44:25.078Z,72.74
2023-04-26T00:46:53.808Z,71.90
2023-04-26T00:49:23.059Z,72.79
2023-04-26T00:51:51.820Z,72.48
2023-04-26T00:54:21.151Z,72.29
2023-04-26T00:56:48.304Z,72.33
2023-04-26T00:59:14.850Z,72.73
2023-04-26T01:01:42.665Z,73.49
2023-04-26T01:04:09.437Z,72.46
2023-04-26T01:06:38.498Z,72.96
2023-04-26T01:09:11.032Z,72.30
2023-04-26T01:11:38.442Z,72.83
2023-04-26T01:14:05.642Z,73.12
2023-04-26T01:16:33.125Z,73.14
2023-04-26T01:19:13.683Z,72.65
2023-04-26T01:21:41.107Z,72.71
2023-04-26T01:24:09.958Z,73.24
2023-04-26T01:26:37.298Z,73.13
2023-04-26T01:29:14.168Z,72.60
2023-04-26T01:31:40.678Z,72.90
2023-04-26T01:34:07.194Z,73.24
2023-04-26T01:36:33.774Z,72.11
2023-04-26T01:39:00.468Z,72.84
2023-04-26T01:41:27.075Z,73.08
2023-04-26T01:43:53.672Z,72.46
2023-04-26T01:46:20.167Z,72.59
2023-04-26T01:48:47.329Z,73.40
2023-04-26T01:51:14.145Z,73.14
2023-04-26T01:53:40.589Z,73.06
2023-04-26T01:56:07.335Z,72.69
2023-04-26T01:58:33.849Z,73.09
2023-04-26T02:01:07.985Z,72.75
2023-04-26T02:03:35.777Z,73.77
2023-04-26T02:06:03.165Z,73.25
2023-04-26T02:08:30.001Z,74.00
2023-04-26T02:10:56.898Z,73.55
2023-04-26T02:13:23.470Z,73.37
2023-04-26T02:15:51.404Z,73.49
2023-04-26T02:18:21.827Z,73.80
2023-04-26T02:20:48.623Z,74.46
2023-04-26T02:23:15.653Z,74.07
2023-04-26T02:25:42.498Z,73.97
2023-04-26T02:28:09.032Z,74.11
2023-04-26T02:30:35.643Z,74.66
2023-04-26T02:33:02.578Z,74.45
2023-04-26T02:35:29.131Z,74.56
2023-04-26T02:37:55.911Z,74.71
2023-04-26T02:40:22.556Z,75.07
2023-04-26T02:42:49.327Z,74.84
2023-04-26T02:45:15.963Z,74.83
2023-04-26T02:47:42.594Z,74.88
2023-04-26T02:50:10.376Z,74.88
2023-04-26T02:52:37.161Z,75.01
2023-04-26T02:55:04.631Z,74.74
2023-04-26T02:57:31.967Z,75.26
2023-04-26T02:59:58.931Z,75.15
2023-04-26T03:02:25.723Z,75.43
2023-04-26T03:04:52.637Z,75.33
2023-04-26T03:07:19.391Z,75.57
2023-04-26T03:09:46.022Z,76.05
2023-04-26T03:12:12.544Z,76.32
2023-04-26T03:14:39.339Z,76.16
2023-04-26T03:17:06.250Z,76.50
2023-04-26T03:19:32.873Z,77.13
2023-04-26T03:21:59.350Z,77.09
2023-04-26T03:24:26.197Z,75.97
2023-04-26T03:26:53.914Z,76.78
2023-04-26T03:29:20.627Z,76.62
2023-04-26T03:31:47.180Z,77.39
2023-04-26T03:34:13.712Z,76.62
2023-04-26T03:36:40.280Z,76.81
2023-04-26T03:39:06.836Z,76.62
2023-04-26T03:41:33.792Z,77.15
2023-04-26T03:44:00.414Z,76.54
2023-04-26T03:46:27.016Z,77.20
2023-04-26T03:48:53.724Z,76.97
2023-04-26T03:51:20.983Z,77.09
2023-04-26T03:53:48.713Z,76.56
2023-04-26T03:56:15.460Z,76.90
2023-04-26T03:58:43.210Z,77.07
2023-04-26T04:01:09.818Z,77.20
2023-04-26T04:03:37.898Z,76.68
2023-04-26T04:06:06.742Z,77.35
2023-04-26T04:08:33.922Z,76.88
2023-04-26T04:11:01.549Z,76.83
2023-04-26T04:13:28.136Z,76.85
2023-04-26T04:15:54.743Z,76.37
2023-04-26T04:18:21.300Z,76.98
2023-04-26T04:20:47.806Z,76.48
2023-04-26T04:23:14.292Z,76.16
2023-04-26T04:25:41.113Z,76.49
2023-04-26T04:28:08.567Z,75.72
2023-04-26T04:30:35.587Z,75.73
2023-04-26T04:33:02.809Z,75.41
2023-04-26T04:35:33.496Z,75.90
2023-04-26T04:38:00.229Z,75.89
2023-04-26T04:40:27.535Z,75.47
2023-04-26T04:42:54.887Z,75.44
2023-04-26T04:45:21.664Z,74.98
2023-04-26T04:47:48.468Z,74.85
2023-04-26T04:50:15.108Z,74.40
2023-04-26T04:52:42.524Z,73.97
2023-04-26T04:55:09.899Z,73.54
2023-04-26T04:57:36.499Z,73.39
2023-04-26T05:00:10.304Z,72.83
2023-04-26T05:02:37.515Z,72.13
2023-04-26T05:05:05.265Z,71.49
2023-04-26T05:07:32.657Z,71.11
2023-04-26T05:09:59.892Z,70.51
2023-04-26T05:12:27.046Z,68.88
2023-04-26T05:14:53.510Z,68.33
2023-04-26T05:17:20.386Z,68.01
2023-04-26T05:19:47.289Z,66.63
2023-04-26T05:22:18.601Z,64.80
2023-04-26T05:24:47.428Z,65.28
2023-04-26T05:27:14.616Z,64.67
2023-04-26T05:29:41.760Z,62.86
2023-04-26T05:32:08.598Z,61.88
2023-04-26T05:34:36.692Z,61.62
2023-04-26T05:37:03.557Z,60.18
2023-04-26T05:39:30.713Z,60.77
2023-04-26T05:41:57.436Z,59.80
2023-04-26T05:44:23.901Z,58.38
2023-04-26T05:46:50.625Z,58.67
2023-04-26T05:49:17.154Z,58.69
2023-04-26T05:51:43.621Z,58.30
2023-04-26T05:54:10.179Z,57.52
2023-04-26T05:56:36.765Z,57.19
2023-04-26T05:59:03.257Z,56.62
2023-04-26T06:01:29.739Z,57.07
2023-04-26T06:03:59.841Z,54.21
2023-04-26T06:06:27.628Z,53.94
2023-04-26T06:08:55.575Z,53.91
2023-04-26T06:11:24.521Z,53.05
2023-04-26T06:13:51.561Z,52.10
2023-04-26T06:16:18.817Z,53.07
2023-04-26T06:18:45.425Z,53.53
2023-04-26T06:21:11.909Z,54.30
2023-04-26T06:23:38.407Z,54.45
2023-04-26T06:26:04.942Z,53.47
2023-04-26T06:28:31.672Z,53.48
2023-04-26T06:30:58.273Z,53.36
2023-04-26T06:33:24.854Z,52.14
2023-04-26T06:35:52.417Z,51.65
2023-04-26T06:38:19.042Z,52.28
2023-04-26T06:40:45.589Z,51.56
2023-04-26T06:43:12.130Z,51.54
2023-04-26T06:45:39.669Z,51.22
2023-04-26T06:48:07.224Z,50.20
2023-04-26T06:50:33.876Z,49.07
2023-04-26T06:53:00.439Z,49.49
2023-04-26T06:55:26.970Z,49.40
2023-04-26T06:57:53.541Z,51.13
2023-04-26T07:00:20.423Z,50.36
2023-04-26T07:02:47.045Z,51.04
2023-04-26T07:05:15.339Z,51.86
2023-04-26T07:07:42.030Z,53.58
2023-04-26T07:10:09.506Z,51.38
2023-04-26T07:12:36.035Z,51.24
2023-04-26T07:15:03.402Z,50.96
2023-04-26T07:17:29.935Z,49.64
2023-04-26T07:19:56.502Z,52.56
2023-04-26T07:22:23.578Z,53.34
2023-04-26T07:24:50.283Z,54.58
2023-04-26T07:27:17.040Z,54.19
2023-04-26T07:29:43.578Z,54.89
2023-04-26T07:32:10.164Z,54.48
2023-04-26T07:34:36.981Z,53.85
2023-04-26T07:37:03.568Z,54.25
2023-04-26T07:39:30.261Z,54.52
2023-04-26T07:41:56.769Z,53.92
2023-04-26T07:44:23.247Z,53.73
2023-04-26T07:46:49.817Z,53.38
2023-04-26T07:49:16.341Z,53.37
2023-04-26T07:51:44.556Z,54.16
2023-04-26T07:54:11.252Z,53.63
2023-04-26T07:56:37.785Z,53.31
2023-04-26T07:59:05.006Z,52.20
2023-04-26T08:01:31.641Z,51.61
2023-04-26T08:03:58.425Z,52.03
2023-04-26T08:06:25.633Z,52.17
2023-04-26T08:08:53.693Z,52.98
2023-04-26T08:11:20.635Z,52.05
2023-04-26T08:13:47.510Z,52.61
2023-04-26T08:16:14.357Z,52.99
2023-04-26T08:18:40.831Z,52.61
2023-04-26T08:21:07.895Z,52.74
2023-04-26T08:23:38.066Z,53.29
2023-04-26T08:26:04.830Z,52.57
2023-04-26T08:28:31.518Z,52.61
2023-04-26T08:30:58.293Z,52.55
2023-04-26T08:33:25.670Z,51.98
2023-04-26T08:35:52.501Z,51.42
2023-04-26T08:38:19.347Z,50.86
2023-04-26T08:40:46.870Z,49.57
2023-04-26T08:43:16.544Z,49.34
2023-04-26T08:45:46.637Z,49.57
2023-04-26T08:48:16.084Z,49.81
2023-04-26T08:50:45.568Z,50.41
2023-04-26T08:53:19.231Z,49.53
2023-04-26T08:55:49.657Z,50.90
2023-04-26T08:58:18.375Z,48.94
2023-04-26T09:00:46.272Z,49.17
2023-04-26T09:03:13.081Z,48.87
2023-04-26T09:05:44.152Z,49.89
2023-04-26T09:08:16.260Z,47.88
2023-04-26T09:10:42.965Z,47.08
2023-04-26T09:13:09.766Z,46.98
2023-04-26T09:15:36.765Z,48.46
2023-04-26T09:18:23.526Z,48.03
2023-04-26T09:21:09.204Z,45.66
2023-04-26T09:23:35.856Z,44.74
2023-04-26T09:26:21.773Z,44.17
2023-04-26T09:28:48.702Z,45.36
2023-04-26T09:31:49.473Z,45.10
2023-04-26T09:34:17.146Z,43.73
2023-04-26T09:36:52.106Z,44.57
2023-04-26T09:39:48.368Z,43.97
2023-04-26T09:42:19.078Z,43.47
2023-04-26T09:44:46.349Z,44.93
2023-04-26T09:47:12.920Z,44.75
2023-04-26T09:49:48.787Z,44.46
2023-04-26T09:52:16.802Z,43.95
2023-04-26T09:54:54.060Z,45.66
2023-04-26T09:57:23.889Z,44.87
2023-04-26T09:59:54.751Z,43.51
2023-04-26T10:02:25.379Z,43.74
2023-04-26T10:04:54.296Z,42.54
2023-04-26T10:07:23.538Z,43.64
2023-04-26T10:09:50.650Z,43.63
2023-04-26T10:12:19.474Z,43.68
2023-04-26T10:14:46.998Z,44.59
2023-04-26T10:17:14.442Z,44.95
2023-04-26T10:19:46.641Z,43.81
2023-04-26T10:22:28.946Z,44.04
2023-04-26T10:24:58.605Z,43.63
2023-04-26T10:27:43.733Z,41.81
2023-04-26T10:30:12.554Z,41.89
2023-04-26T10:32:57.693Z,41.07
2023-04-26T10:35:26.334Z,42.44
2023-04-26T10:38:02.085Z,42.63
2023-04-26T10:40:32.229Z,44.15
2023-04-26T10:43:11.838Z,43.86
2023-04-26T10:45:39.787Z,44.95
2023-04-26T10:48:18.834Z,43.81
2023-04-26T10:51:12.856Z,43.79
2023-04-26T10:53:46.437Z,43.24
2023-04-26T10:56:30.371Z,41.85
2023-04-26T11:01:52.592Z,41.33
2023-04-26T11:04:19.425Z,40.44
2023-04-26T11:06:57.920Z,40.57
2023-04-26T11:09:39.361Z,39.82
2023-04-26T11:12:08.161Z,38.52
2023-04-26T11:14:35.474Z,38.63
2023-04-26T11:17:06.436Z,37.70
2023-04-26T11:19:33.257Z,38.69
2023-04-26T11:22:00.914Z,39.05
2023-04-26T11:24:31.413Z,37.74
2023-04-26T11:26:58.234Z,37.27
2023-04-26T11:29:25.798Z,37.86
2023-04-26T11:31:57.294Z,37.68
2023-04-26T11:34:38.908Z,37.49
2023-04-26T11:37:06.754Z,37.95
2023-04-26T11:39:34.132Z,37.67
2023-04-26T11:42:11.461Z,37.03
2023-04-26T11:44:39.863Z,38.07
2023-04-26T11:47:09.951Z,37.82
2023-04-26T11:49:37.743Z,38.22
2023-04-26T11:52:05.241Z,37.87
2023-04-26T11:54:34.335Z,38.18
2023-04-26T11:57:02.876Z,38.29
2023-04-26T11:59:30.886Z,38.96
2023-04-26T12:01:57.716Z,38.84
2023-04-26T12:04:30.312Z,39.77
2023-04-26T12:06:57.940Z,39.34
2023-04-26T12:09:27.943Z,39.65
2023-04-26T12:12:02.173Z,40.25
2023-04-26T12:14:36.584Z,40.30
2023-04-26T12:17:04.598Z,40.33
2023-04-26T12:19:35.209Z,39.63
2023-04-26T12:22:01.765Z,39.80
2023-04-26T12:24:33.125Z,40.05
2023-04-26T12:27:04.262Z,40.17
2023-04-26T12:29:32.075Z,40.19
2023-04-26T12:31:59.790Z,40.41
2023-04-26T12:34:26.409Z,39.00
2023-04-26T12:36:53.088Z,39.69
2023-04-26T12:39:19.610Z,40.01
2023-04-26T12:41:49.327Z,40.30
2023-04-26T12:44:16.246Z,40.21
2023-04-26T12:46:43.047Z,39.65
2023-04-26T12:49:09.657Z,39.87
2023-04-26T12:51:36.273Z,40.08
2023-04-26T12:54:03.028Z,40.40
2023-04-26T12:56:30.007Z,38.85
2023-04-26T12:58:56.765Z,39.98
2023-04-26T13:01:23.489Z,39.43
2023-04-26T13:03:50.276Z,38.37
2023-04-26T13:06:17.026Z,39.30
2023-04-26T13:08:43.555Z,39.58
2023-04-26T13:11:10.152Z,39.59
2023-04-26T13:13:43.546Z,39.82
2023-04-26T13:16:11.945Z,40.67
2023-04-26T13:18:39.279Z,41.18
2023-04-26T13:21:06.065Z,40.63
2023-04-26T13:23:32.557Z,40.81
2023-04-26T13:25:59.087Z,41.08
2023-04-26T13:28:25.713Z,40.85
2023-04-26T13:30:52.546Z,39.88
2023-04-26T13:33:21.459Z,38.21
2023-04-26T13:35:48.497Z,39.08
2023-04-26T13:38:16.501Z,39.38
2023-04-26T13:40:44.041Z,40.09
2023-04-26T13:43:10.908Z,40.08
2023-04-26T13:45:37.452Z,40.26
2023-04-26T13:48:04.204Z,40.42
2023-04-26T13:50:31.069Z,40.55
2023-04-26T13:52:57.594Z,40.97
2023-04-26T13:55:24.345Z,41.77
2023-04-26T13:57:51.019Z,41.83
2023-04-26T14:00:18.042Z,41.97
2023-04-26T14:02:44.738Z,42.07
2023-04-26T14:05:11.684Z,41.36
2023-04-26T14:07:38.410Z,41.40
2023-04-26T14:10:05.220Z,37.66
2023-04-26T14:12:31.785Z,36.67
2023-04-26T14:14:58.459Z,37.52
2023-04-26T14:17:25.807Z,38.33
2023-04-26T14:19:54.522Z,38.74
2023-04-26T14:22:21.378Z,38.08
2023-04-26T14:24:48.082Z,38.10
2023-04-26T14:27:15.012Z,38.25
2023-04-26T14:29:41.588Z,38.41
2023-04-26T14:32:08.189Z,39.06
2023-04-26T14:34:39.152Z,39.17
2023-04-26T14:37:06.834Z,39.30
2023-04-26T14:39:33.797Z,39.80
2023-04-26T14:42:00.679Z,39.92
2023-04-26T14:44:27.794Z,40.53
2023-04-26T14:46:54.305Z,40.73
2023-04-26T14:49:21.129Z,40.53
2023-04-26T14:51:47.745Z,40.92
2023-04-26T14:54:15.338Z,41.04
2023-04-26T14:56:42.218Z,40.86
2023-04-26T14:59:08.766Z,40.63
2023-04-26T15:01:35.557Z,40.87
2023-04-26T15:04:02.405Z,40.88
2023-04-26T15:06:30.764Z,40.08
2023-04-26T15:08:57.470Z,39.16
2023-04-26T15:11:24.178Z,38.91
2023-04-26T15:13:51.155Z,38.54
2023-04-26T15:16:17.858Z,37.81
2023-04-26T15:18:46.456Z,38.28
2023-04-26T15:21:19.682Z,39.26
2023-04-26T15:23:49.122Z,39.86
2023-04-26T15:26:15.683Z,40.56
2023-04-26T15:28:42.546Z,41.64
2023-04-26T15:31:10.046Z,41.93
2023-04-26T15:33:36.819Z,42.29
2023-04-26T15:36:03.582Z,43.08
2023-04-26T15:38:30.198Z,43.23
2023-04-26T15:40:56.769Z,42.51
2023-04-26T15:43:23.401Z,42.63
2023-04-26T15:45:50.223Z,42.43
2023-04-26T15:48:16.980Z,41.99
2023-04-26T15:50:43.539Z,41.88
2023-04-26T15:53:10.171Z,42.03
2023-04-26T15:55:36.875Z,42.06
2023-04-26T15:58:03.538Z,41.85
2023-04-26T16:00:31.544Z,42.11
2023-04-26T16:02:58.262Z,42.30
2023-04-26T16:05:25.003Z,42.54
2023-04-26T16:07:51.618Z,42.66
2023-04-26T16:10:18.067Z,42.82
2023-04-26T16:12:44.968Z,42.54
2023-04-26T16:15:11.938Z,42.64
2023-04-26T16:17:39.377Z,43.41
2023-04-26T16:20:07.194Z,43.64
2023-04-26T16:22:35.012Z,43.48
2023-04-26T16:25:04.108Z,43.65
2023-04-26T16:27:30.651Z,43.73
2023-04-26T16:29:57.598Z,43.40
2023-04-26T16:32:27.500Z,43.90
2023-04-26T16:34:54.039Z,44.00
2023-04-26T16:37:20.866Z,44.45
2023-04-26T16:39:47.469Z,45.06
2023-04-26T16:42:14.084Z,45.86
2023-04-26T16:44:40.871Z,46.13
2023-04-26T16:47:07.458Z,48.71
2023-04-26T16:49:34.306Z,47.75
2023-04-26T16:52:01.194Z,48.29
2023-04-26T16:54:28.428Z,48.19
2023-04-26T16:56:54.965Z,48.90
2023-04-26T16:59:21.481Z,49.29
2023-04-26T17:01:48.107Z,49.22
2023-04-26T17:04:14.873Z,49.28
2023-04-26T17:06:41.638Z,48.81
2023-04-26T17:09:08.763Z,48.34
2023-04-26T17:11:37.363Z,48.20
2023-04-26T17:14:04.541Z,48.56
2023-04-26T17:16:31.424Z,49.03
2023-04-26T17:18:58.531Z,48.83
2023-04-26T17:21:25.527Z,49.85
2023-04-26T17:23:52.567Z,49.28
2023-04-26T17:26:19.304Z,49.63
2023-04-26T17:28:46.490Z,49.38
2023-04-26T17:31:13.085Z,49.39
2023-04-26T17:33:39.772Z,49.62
2023-04-26T17:36:06.513Z,49.55
2023-04-26T17:38:33.050Z,49.95
2023-04-26T17:40:59.786Z,49.68
2023-04-26T17:43:26.434Z,49.88
2023-04-26T17:45:53.206Z,50.28
2023-04-26T17:48:20.436Z,50.80
2023-04-26T17:50:47.149Z,51.02
2023-04-26T17:53:14.069Z,51.61
2023-04-26T17:55:40.734Z,51.64
2023-04-26T17:58:09.050Z,51.12
2023-04-26T18:00:35.661Z,51.35
2023-04-26T18:03:05.152Z,51.54
2023-04-26T18:05:31.996Z,51.71
2023-04-26T18:07:58.801Z,51.85
2023-04-26T18:10:25.826Z,52.10
2023-04-26T18:12:52.344Z,52.07
2023-04-26T18:15:19.376Z,51.97
2023-04-26T18:17:46.236Z,52.08
2023-04-26T18:20:13.344Z,52.15
2023-04-26T18:22:40.173Z,52.47
2023-04-26T18:25:07.221Z,52.77
2023-04-26T18:27:33.921Z,53.10
2023-04-26T18:30:00.750Z,53.58
2023-04-26T18:32:27.308Z,53.39
2023-04-26T18:34:53.913Z,53.79
2023-04-26T18:37:20.454Z,54.05
2023-04-26T18:39:47.056Z,53.67
2023-04-26T18:42:13.589Z,54.11
2023-04-26T18:44:40.089Z,54.58
2023-04-26T18:47:08.229Z,54.73
2023-04-26T18:49:34.729Z,54.94
2023-04-26T18:52:01.692Z,54.95
2023-04-26T18:54:28.356Z,55.00
2023-04-26T18:56:54.912Z,55.52
2023-04-26T18:59:21.666Z,55.67
2023-04-26T19:01:49.599Z,55.71
2023-04-26T19:04:16.433Z,55.86
2023-04-26T19:06:43.220Z,55.43
2023-04-26T19:09:11.769Z,56.28
2023-04-26T19:11:38.497Z,55.97
2023-04-26T19:14:05.233Z,56.19
2023-04-26T19:16:32.122Z,55.94
2023-04-26T19:18:58.905Z,56.66
2023-04-26T19:21:25.489Z,56.35
2023-04-26T19:23:52.388Z,56.47
2023-04-26T19:26:19.002Z,57.21
2023-04-26T19:28:45.538Z,57.31
2023-04-26T19:31:12.148Z,56.77
2023-04-26T19:33:40.577Z,57.29
2023-04-26T19:36:08.652Z,57.66
2023-04-26T19:38:35.348Z,57.75
2023-04-26T19:41:02.449Z,57.97
2023-04-26T19:43:29.172Z,58.07
2023-04-26T19:45:55.872Z,58.64
2023-04-26T19:48:22.361Z,58.25
2023-04-26T19:50:48.931Z,58.57
2023-04-26T19:53:15.655Z,58.99
2023-04-26T19:55:42.683Z,58.11
2023-04-26T19:58:10.874Z,59.26
2023-04-26T20:00:39.138Z,59.00
2023-04-26T20:03:06.695Z,59.34
2023-04-26T20:05:33.897Z,58.86
2023-04-26T20:08:01.763Z,59.58
2023-04-26T20:10:32.762Z,60.78
2023-04-26T20:13:00.841Z,61.27
2023-04-26T20:15:28.033Z,61.97
2023-04-26T20:17:55.109Z,60.45
2023-04-26T20:20:21.977Z,60.75
2023-04-26T20:22:48.661Z,60.21
2023-04-26T20:25:15.483Z,60.09
2023-04-26T20:27:42.073Z,60.58
2023-04-26T20:30:09.314Z,60.30
2023-04-26T20:32:36.033Z,60.83
2023-04-26T20:35:02.794Z,61.77
2023-04-26T20:37:29.538Z,61.91
2023-04-26T20:39:56.651Z,61.82
2023-04-26T20:42:24.418Z,61.32
2023-04-26T20:44:51.444Z,61.41
2023-04-26T20:47:18.307Z,61.65
2023-04-26T20:49:44.994Z,61.70
2023-04-26T20:52:11.620Z,61.33
2023-04-26T20:54:38.129Z,61.09
2023-04-26T20:57:04.683Z,61.91
2023-04-26T20:59:31.441Z,62.36
2023-04-26T21:01:58.179Z,62.87
2023-04-26T21:04:25.178Z,62.78
2023-04-26T21:06:51.924Z,62.24
2023-04-26T21:09:19.169Z,62.20
2023-04-26T21:11:45.979Z,61.95
2023-04-26T21:14:13.750Z,62.18
2023-04-26T21:16:40.636Z,63.48
2023-04-26T21:19:08.247Z,62.53
2023-04-26T21:21:35.149Z,62.35
2023-04-26T21:24:02.624Z,62.88
2023-04-26T21:26:29.719Z,62.39
2023-04-26T21:28:56.276Z,62.37
2023-04-26T21:31:22.877Z,63.39
2023-04-26T21:33:49.669Z,62.65
2023-04-26T21:36:16.398Z,64.22
2023-04-26T21:38:43.052Z,63.33
2023-04-26T21:41:09.990Z,63.94
2023-04-26T21:43:36.553Z,63.03
2023-04-26T21:46:03.438Z,63.78
2023-04-26T21:48:30.030Z,65.11
2023-04-26T21:50:57.008Z,64.05
2023-04-26T21:53:23.585Z,62.97
2023-04-26T21:55:52.569Z,64.42
2023-04-26T21:58:20.712Z,63.72
2023-04-26T22:00:48.148Z,63.39
2023-04-26T22:03:14.894Z,63.75
2023-04-26T22:05:41.926Z,64.27
2023-04-26T22:08:08.568Z,64.64
2023-04-26T22:10:35.594Z,64.02
2023-04-26T22:13:02.642Z,64.45
2023-04-26T22:15:29.309Z,64.09
2023-04-26T22:17:55.894Z,64.29
2023-04-26T22:20:22.694Z,64.14
2023-04-26T22:22:49.282Z,64.35
2023-04-26T22:25:15.888Z,63.70
2023-04-26T22:27:42.394Z,64.39
2023-04-26T22:30:16.805Z,64.53
2023-04-26T22:32:54.562Z,64.92
2023-04-26T22:35:22.095Z,64.10
2023-04-26T22:37:48.616Z,63.87
2023-04-26T22:40:16.129Z,64.04
2023-04-26T22:42:43.251Z,64.22
2023-04-26T22:45:11.127Z,64.32
2023-04-26T22:47:38.126Z,65.41
2023-04-26T22:50:06.027Z,64.59
2023-04-26T22:52:32.717Z,64.98
2023-04-26T22:55:00.007Z,64.85
2023-04-26T22:57:26.957Z,65.53
2023-04-26T22:59:53.399Z,66.73
2023-04-26T23:02:20.932Z,66.76
2023-04-26T23:04:47.680Z,65.77
2023-04-26T23:07:14.198Z,65.26
2023-04-26T23:09:41.179Z,65.44
2023-04-26T23:12:07.827Z,65.72
2023-04-26T23:14:35.087Z,64.92
2023-04-26T23:17:02.884Z,64.65
2023-04-26T23:19:29.546Z,64.72
2023-04-26T23:21:56.391Z,64.84
2023-04-26T23:24:22.919Z,64.72
2023-04-26T23:26:49.588Z,65.80
2023-04-26T23:29:16.159Z,65.51
2023-04-26T23:31:43.017Z,65.47
2023-04-26T23:34:09.606Z,64.99
2023-04-26T23:36:36.261Z,65.22
2023-04-26T23:39:03.016Z,65.40
2023-04-26T23:41:29.564Z,67.17
2023-04-26T23:43:56.131Z,68.46
2023-04-26T23:46:22.860Z,66.50
2023-04-26T23:48:49.409Z,66.67
2023-04-26T23:51:16.275Z,65.10
2023-04-26T23:53:43.912Z,65.17
2023-04-26T23:56:10.600Z,64.80
2023-04-26T23:58:37.169Z,65.89
